createdAt,value
2018-05-11T00:02:21.982Z,10.90
2018-05-11T00:04:49.486Z,10.90
2018-05-11T00:07:16.994Z,10.90
2018-05-11T00:09:45.271Z,11.00
2018-05-11T00:12:13.549Z,11.00
2018-05-11T00:14:41.070Z,11.00
2018-05-11T00:17:08.590Z,11.10
2018-05-11T00:19:36.089Z,11.10
2018-05-11T00:22:03.603Z,11.10
2018-05-11T00:24:31.103Z,11.10
2018-05-11T00:26:58.654Z,11.20
2018-05-11T00:29:26.161Z,11.20
2018-05-11T00:31:53.650Z,11.20
2018-05-11T00:34:21.156Z,11.30
2018-05-11T00:36:49.548Z,11.30
2018-05-11T00:39:17.847Z,11.30
2018-05-11T00:41:45.343Z,11.30
2018-05-11T00:44:12.858Z,11.40
2018-05-11T00:46:40.392Z,11.40
2018-05-11T00:49:08.692Z,11.30
2018-05-11T00:51:36.225Z,11.30
2018-05-11T00:54:04.489Z,11.20
2018-05-11T00:56:31.994Z,11.20
2018-05-11T00:58:59.494Z,11.20
2018-05-11T01:01:26.994Z,11.10
2018-05-11T01:03:54.510Z,11.00
2018-05-11T01:06:22.008Z,11.00
2018-05-11T01:08:49.522Z,10.90
2018-05-11T01:11:17.775Z,10.80
2018-05-11T01:13:45.280Z,10.80
2018-05-11T01:16:13.554Z,10.70
2018-05-11T01:18:41.818Z,10.70
2018-05-11T01:21:09.318Z,10.60
2018-05-11T01:23:37.591Z,10.60
2018-05-11T01:26:05.107Z,10.60
2018-05-11T01:28:32.704Z,10.60
2018-05-11T01:31:00.219Z,10.60
2018-05-11T01:33:27.736Z,10.50
2018-05-11T01:35:55.231Z,10.60
2018-05-11T01:38:22.731Z,10.50
2018-05-11T01:40:50.241Z,10.50
2018-05-11T01:43:17.735Z,10.50
2018-05-11T01:45:46.003Z,10.50
2018-05-11T01:48:14.296Z,10.60
2018-05-11T01:50:42.566Z,10.60
2018-05-11T01:53:10.835Z,10.60
2018-05-11T01:55:39.119Z,10.60
2018-05-11T01:58:07.387Z,10.60
2018-05-11T02:00:35.668Z,10.60
2018-05-11T02:03:03.927Z,10.50
2018-05-11T02:05:31.435Z,10.50
2018-05-11T02:07:58.954Z,10.50
2018-05-11T02:10:27.229Z,10.40
2018-05-11T02:12:55.497Z,10.40
2018-05-11T02:15:22.999Z,10.30
2018-05-11T02:17:50.559Z,10.40
2018-05-11T02:20:18.067Z,10.40
2018-05-11T02:22:45.591Z,10.30
2018-05-11T02:25:13.094Z,10.40
2018-05-11T02:27:40.609Z,10.30
2018-05-11T02:30:08.144Z,10.30
2018-05-11T02:32:35.678Z,10.30
2018-05-11T02:35:03.934Z,10.20
2018-05-11T02:37:31.432Z,10.20
2018-05-11T02:39:58.939Z,10.10
2018-05-11T02:42:26.433Z,10.10
2018-05-11T02:44:54.718Z,10.00
2018-05-11T02:47:22.228Z,10.00
2018-05-11T02:49:49.733Z,10.00
2018-05-11T02:52:17.987Z,9.90
2018-05-11T02:54:46.468Z,9.90
2018-05-11T02:57:14.744Z,9.90
2018-05-11T02:59:43.019Z,9.90
2018-05-11T03:02:10.517Z,9.90
2018-05-11T03:04:38.008Z,9.90
2018-05-11T03:07:05.527Z,9.90
2018-05-11T03:09:33.032Z,9.80
2018-05-11T03:12:00.527Z,9.80
2018-05-11T03:14:28.804Z,9.80
2018-05-11T03:16:57.090Z,9.70
2018-05-11T03:19:24.593Z,9.70
2018-05-11T03:21:52.091Z,9.70
2018-05-11T03:24:20.364Z,9.70
2018-05-11T03:26:48.643Z,9.70
2018-05-11T03:29:16.919Z,9.70
2018-05-11T03:31:45.198Z,9.70
2018-05-11T03:34:13.497Z,9.80
2018-05-11T03:36:41.013Z,9.80
2018-05-11T03:39:08.614Z,9.80
2018-05-11T03:41:36.117Z,9.80
2018-05-11T03:44:03.619Z,9.90
2018-05-11T03:46:31.127Z,9.90
2018-05-11T03:48:58.632Z,9.90
2018-05-11T03:51:26.150Z,10.00
2018-05-11T03:53:53.744Z,10.00
2018-05-11T03:56:21.198Z,10.00
2018-05-11T03:58:49.479Z,10.00
2018-05-11T04:01:29.724Z,10.10
2018-05-11T04:04:09.875Z,10.10
2018-05-11T04:06:49.958Z,10.10
2018-05-11T04:09:17.484Z,10.10
2018-05-11T04:11:45.761Z,10.20
2018-05-11T04:14:14.027Z,10.30
2018-05-11T04:16:41.536Z,10.20
2018-05-11T04:19:09.082Z,10.30
2018-05-11T04:21:36.601Z,10.40
2018-05-11T04:24:04.099Z,10.50
2018-05-11T04:26:31.615Z,10.50
2018-05-11T04:28:59.217Z,10.50
2018-05-11T04:31:26.742Z,10.60
2018-05-11T04:33:54.243Z,10.70
2018-05-11T04:36:21.778Z,10.70
2018-05-11T04:38:49.307Z,10.80
2018-05-11T04:41:16.816Z,10.80
2018-05-11T04:43:44.319Z,10.90
2018-05-11T04:46:11.815Z,10.90
2018-05-11T04:48:39.321Z,11.00
2018-05-11T04:51:06.827Z,11.00
2018-05-11T04:53:35.219Z,11.20
2018-05-11T04:56:02.733Z,11.10
2018-05-11T04:58:30.256Z,11.20
2018-05-11T05:00:57.754Z,11.30
2018-05-11T05:03:25.276Z,11.30
2018-05-11T05:05:52.785Z,11.40
2018-05-11T05:08:21.072Z,11.50
2018-05-11T05:10:48.600Z,11.50
2018-05-11T05:13:16.097Z,11.50
2018-05-11T05:15:43.619Z,11.60
2018-05-11T05:18:11.146Z,11.80
2018-05-11T05:20:38.687Z,11.90
2018-05-11T05:23:06.198Z,12.00
2018-05-11T05:25:33.698Z,12.10
2018-05-11T05:28:01.237Z,12.30
2018-05-11T05:30:29.515Z,12.40
2018-05-11T05:32:57.788Z,12.60
2018-05-11T05:35:26.076Z,12.90
2018-05-11T05:37:53.583Z,12.80
2018-05-11T05:40:21.103Z,13.00
2018-05-11T05:42:48.615Z,13.00
2018-05-11T05:45:16.135Z,13.10
2018-05-11T05:47:43.660Z,13.10
2018-05-11T05:50:11.939Z,13.10
2018-05-11T05:52:40.208Z,13.10
2018-05-11T05:55:08.475Z,13.20
2018-05-11T05:57:36.832Z,13.20
2018-05-11T06:00:05.279Z,13.20
2018-05-11T06:02:32.840Z,13.20
2018-05-11T06:05:01.108Z,13.40
2018-05-11T06:07:28.615Z,13.40
2018-05-11T06:09:56.131Z,13.50
2018-05-11T06:12:23.645Z,13.60
2018-05-11T06:14:51.925Z,13.90
2018-05-11T06:17:20.210Z,14.00
2018-05-11T06:19:48.495Z,14.20
2018-05-11T06:22:16.014Z,14.20
2018-05-11T06:24:43.571Z,14.40
2018-05-11T06:27:11.050Z,14.60
2018-05-11T06:29:39.328Z,15.00
2018-05-11T06:32:07.628Z,15.10
2018-05-11T06:34:35.213Z,15.00
2018-05-11T06:37:02.667Z,14.90
2018-05-11T06:39:30.187Z,14.70
2018-05-11T06:41:58.495Z,14.50
2018-05-11T06:44:25.994Z,14.50
2018-05-11T06:46:55.016Z,14.40
2018-05-11T06:49:22.536Z,14.40
2018-05-11T06:51:50.043Z,14.40
2018-05-11T06:54:17.545Z,14.30
2018-05-11T06:56:45.080Z,14.30
2018-05-11T06:59:12.578Z,14.40
2018-05-11T07:01:40.160Z,14.40
2018-05-11T07:04:07.645Z,14.50
2018-05-11T07:06:35.157Z,14.40
2018-05-11T07:09:02.680Z,14.40
2018-05-11T07:11:30.192Z,14.30
2018-05-11T07:13:58.595Z,14.20
2018-05-11T07:16:26.092Z,14.20
2018-05-11T07:18:53.597Z,14.20
2018-05-11T07:21:21.112Z,14.20
2018-05-11T07:23:48.618Z,14.30
2018-05-11T07:26:16.126Z,14.40
2018-05-11T07:28:43.648Z,14.60
2018-05-11T07:31:11.152Z,14.50
2018-05-11T07:33:40.188Z,14.20
2018-05-11T07:36:07.686Z,14.20
2018-05-11T07:38:35.231Z,14.10
2018-05-11T07:41:02.749Z,14.10
2018-05-11T07:43:31.078Z,14.20
2018-05-11T07:45:58.564Z,14.20
2018-05-11T07:48:26.926Z,14.70
2018-05-11T07:50:54.424Z,14.70
2018-05-11T07:53:21.945Z,14.90
2018-05-11T07:55:49.458Z,14.90
2018-05-11T07:58:16.968Z,14.90
2018-05-11T08:00:44.567Z,14.90
2018-05-11T08:03:12.091Z,14.70
2018-05-11T08:05:39.602Z,14.50
2018-05-11T08:08:07.096Z,14.30
2018-05-11T08:10:34.622Z,14.30
2018-05-11T08:13:02.136Z,14.40
2018-05-11T08:15:30.425Z,14.40
2018-05-11T08:17:57.936Z,14.40
2018-05-11T08:20:25.554Z,14.60
2018-05-11T08:22:53.120Z,14.80
2018-05-11T08:25:20.619Z,15.00
2018-05-11T08:27:48.128Z,15.10
2018-05-11T08:30:15.619Z,15.10
2018-05-11T08:32:43.152Z,15.30
2018-05-11T08:35:10.704Z,15.40
2018-05-11T08:37:38.223Z,15.50
2018-05-11T08:40:05.723Z,15.60
2018-05-11T08:42:33.222Z,15.70
2018-05-11T08:45:00.746Z,15.80
2018-05-11T08:47:28.254Z,15.80
2018-05-11T08:49:55.794Z,15.80
2018-05-11T08:52:23.298Z,15.70
2018-05-11T08:54:51.574Z,15.80
2018-05-11T08:57:19.859Z,15.90
2018-05-11T08:59:47.372Z,15.80
2018-05-11T09:02:14.969Z,15.80
2018-05-11T09:04:43.259Z,15.90
2018-05-11T09:07:10.767Z,15.90
2018-05-11T09:09:38.289Z,15.90
2018-05-11T09:12:05.826Z,16.00
2018-05-11T09:14:33.335Z,16.00
2018-05-11T09:17:00.850Z,15.80
2018-05-11T09:19:28.350Z,15.60
2018-05-11T09:21:55.861Z,15.60
2018-05-11T09:24:23.385Z,15.60
2018-05-11T09:26:50.899Z,15.70
2018-05-11T09:29:18.534Z,15.90
2018-05-11T09:31:46.902Z,16.10
2018-05-11T09:34:14.337Z,16.10
2018-05-11T09:36:41.860Z,16.30
2018-05-11T09:39:09.379Z,16.40
2018-05-11T09:41:37.643Z,16.80
2018-05-11T09:44:05.964Z,16.80
2018-05-11T09:46:33.459Z,16.80
2018-05-11T09:49:00.988Z,16.80
2018-05-11T09:51:28.495Z,16.80
2018-05-11T09:53:56.825Z,16.70
2018-05-11T09:56:24.484Z,16.70
2018-05-11T09:58:51.984Z,16.70
2018-05-11T10:01:19.491Z,16.70
2018-05-11T10:03:47.015Z,16.70
2018-05-11T10:06:15.311Z,17.20
2018-05-11T10:08:42.814Z,17.10
2018-05-11T10:11:10.331Z,17.50
2018-05-11T10:13:37.838Z,17.70
2018-05-11T10:16:05.353Z,17.90
2018-05-11T10:18:32.864Z,17.90
2018-05-11T10:21:00.374Z,17.60
2018-05-11T10:23:27.928Z,17.30
2018-05-11T10:25:55.423Z,17.00
2018-05-11T10:28:22.951Z,16.90
2018-05-11T10:30:51.222Z,16.90
2018-05-11T10:33:18.738Z,16.90
2018-05-11T10:35:47.029Z,17.00
2018-05-11T10:38:15.314Z,16.90
2018-05-11T10:40:42.854Z,16.90
2018-05-11T10:43:11.114Z,16.90
2018-05-11T10:45:38.719Z,16.90
2018-05-11T10:48:06.295Z,17.10
2018-05-11T10:50:33.812Z,17.20
2018-05-11T10:53:02.105Z,17.20
2018-05-11T10:55:29.609Z,17.20
2018-05-11T10:57:57.112Z,17.30
2018-05-11T11:00:25.379Z,17.60
2018-05-11T11:02:53.672Z,17.70
2018-05-11T11:05:21.175Z,17.70
2018-05-11T11:07:48.706Z,17.60
2018-05-11T11:10:16.241Z,17.60
2018-05-11T11:12:43.766Z,17.50
2018-05-11T11:15:11.463Z,17.30
2018-05-11T11:17:38.981Z,17.20
2018-05-11T11:20:06.630Z,17.10
2018-05-11T11:22:34.074Z,17.00
2018-05-11T11:25:01.615Z,17.10
2018-05-11T11:27:29.123Z,17.20
2018-05-11T11:29:56.634Z,17.40
2018-05-11T11:32:24.167Z,17.50
2018-05-11T11:34:52.495Z,17.80
2018-05-11T11:37:19.994Z,17.70
2018-05-11T11:39:47.501Z,17.70
2018-05-11T11:42:15.033Z,17.70
2018-05-11T11:44:42.541Z,17.70
2018-05-11T11:47:10.075Z,17.80
2018-05-11T11:49:37.591Z,17.80
2018-05-11T11:52:05.884Z,18.00
2018-05-11T11:54:34.158Z,18.10
2018-05-11T11:57:02.448Z,18.10
2018-05-11T11:59:29.966Z,18.00
2018-05-11T12:01:57.500Z,18.00
2018-05-11T12:04:25.074Z,18.00
2018-05-11T12:06:53.291Z,18.00
2018-05-11T12:09:20.803Z,18.00
2018-05-11T12:11:48.357Z,18.10
2018-05-11T12:14:15.854Z,18.00
2018-05-11T12:16:44.124Z,17.90
2018-05-11T12:19:12.426Z,18.00
2018-05-11T12:21:39.935Z,18.00
2018-05-11T12:24:07.442Z,18.10
2018-05-11T12:26:34.938Z,18.20
2018-05-11T12:29:02.472Z,18.20
2018-05-11T12:31:29.988Z,18.10
2018-05-11T12:33:57.496Z,18.10
2018-05-11T12:36:25.000Z,18.10
2018-05-11T12:38:52.587Z,18.00
2018-05-11T12:41:20.108Z,18.10
2018-05-11T12:43:47.750Z,18.20
2018-05-11T12:46:15.284Z,18.30
2018-05-11T12:48:42.784Z,18.30
2018-05-11T12:51:10.288Z,18.30
2018-05-11T12:53:37.791Z,18.30
2018-05-11T12:56:05.296Z,18.30
2018-05-11T12:58:32.815Z,18.30
2018-05-11T13:01:01.847Z,18.40
2018-05-11T13:03:29.339Z,18.40
2018-05-11T13:05:56.840Z,18.50
2018-05-11T13:08:24.353Z,18.60
2018-05-11T13:10:51.858Z,18.70
2018-05-11T13:13:19.362Z,18.70
2018-05-11T13:15:46.869Z,18.70
2018-05-11T13:18:14.481Z,18.50
2018-05-11T13:20:42.035Z,18.50
2018-05-11T13:23:10.307Z,18.50
2018-05-11T13:25:38.594Z,18.60
2018-05-11T13:28:06.104Z,18.60
2018-05-11T13:30:33.621Z,18.60
2018-05-11T13:33:01.184Z,18.70
2018-05-11T13:35:28.711Z,18.70
2018-05-11T13:37:56.973Z,18.80
2018-05-11T13:40:24.490Z,18.70
2018-05-11T13:42:52.043Z,18.80
2018-05-11T13:45:19.544Z,18.90
2018-05-11T13:47:47.052Z,19.10
2018-05-11T13:50:14.548Z,19.30
2018-05-11T13:52:42.171Z,19.40
2018-05-11T13:55:09.686Z,19.50
2018-05-11T13:57:37.271Z,19.60
2018-05-11T14:00:05.540Z,19.70
2018-05-11T14:02:33.837Z,19.80
2018-05-11T14:05:01.339Z,19.80
2018-05-11T14:07:28.854Z,20.00
2018-05-11T14:09:56.360Z,20.10
2018-05-11T14:12:23.860Z,20.10
2018-05-11T14:14:51.544Z,20.00
2018-05-11T14:17:19.558Z,19.80
2018-05-11T14:19:47.095Z,19.60
2018-05-11T14:22:14.730Z,19.50
2018-05-11T14:24:42.235Z,19.60
2018-05-11T14:27:09.747Z,19.60
2018-05-11T14:29:37.246Z,19.60
2018-05-11T14:32:04.784Z,19.60
2018-05-11T14:34:32.295Z,19.60
2018-05-11T14:37:00.587Z,19.90
2018-05-11T14:39:28.092Z,19.90
2018-05-11T14:41:55.618Z,20.00
2018-05-11T14:44:23.159Z,20.10
2018-05-11T14:46:50.676Z,20.00
2018-05-11T14:49:18.167Z,19.90
2018-05-11T14:51:46.439Z,19.50
2018-05-11T14:54:14.702Z,19.40
2018-05-11T14:56:42.984Z,19.30
2018-05-11T14:59:11.243Z,19.20
2018-05-11T15:01:38.756Z,19.20
2018-05-11T15:04:06.337Z,19.10
2018-05-11T15:06:33.806Z,19.00
2018-05-11T15:09:01.329Z,19.10
2018-05-11T15:11:28.842Z,19.20
2018-05-11T15:13:56.351Z,19.20
2018-05-11T15:16:23.879Z,19.30
2018-05-11T15:18:51.399Z,19.30
2018-05-11T15:21:19.000Z,19.40
2018-05-11T15:23:46.494Z,19.50
2018-05-11T15:26:13.985Z,19.50
2018-05-11T15:28:41.499Z,19.60
2018-05-11T15:31:09.046Z,19.50
2018-05-11T15:33:36.579Z,19.40
2018-05-11T15:36:04.845Z,19.50
2018-05-11T15:38:32.364Z,19.50
2018-05-11T15:40:59.857Z,19.60
2018-05-11T15:43:28.142Z,19.70
2018-05-11T15:45:56.432Z,19.70
2018-05-11T15:48:24.697Z,19.60
2018-05-11T15:50:52.983Z,19.50
2018-05-11T15:53:21.246Z,19.40
2018-05-11T15:55:49.553Z,19.30
2018-05-11T15:58:17.058Z,19.30
2018-05-11T16:00:44.574Z,19.30
2018-05-11T16:03:12.099Z,19.20
2018-05-11T16:05:40.387Z,19.30
2018-05-11T16:08:08.670Z,19.30
2018-05-11T16:10:36.182Z,19.40
2018-05-11T16:13:03.751Z,19.40
2018-05-11T16:15:32.983Z,19.50
2018-05-11T16:18:00.559Z,19.50
2018-05-11T16:20:28.136Z,19.50
2018-05-11T16:22:56.362Z,19.60
2018-05-11T16:25:24.657Z,19.60
2018-05-11T16:27:52.160Z,19.60
2018-05-11T16:30:19.687Z,19.50
2018-05-11T16:32:47.187Z,19.50
2018-05-11T16:35:14.727Z,19.40
2018-05-11T16:37:42.235Z,19.40
2018-05-11T16:40:10.534Z,19.30
2018-05-11T16:42:38.060Z,19.30
2018-05-11T16:45:06.332Z,19.20
2018-05-11T16:47:33.848Z,19.20
2018-05-11T16:50:01.424Z,19.20
2018-05-11T16:52:28.936Z,19.20
2018-05-11T16:54:56.500Z,19.10
2018-05-11T16:57:24.023Z,19.10
2018-05-11T16:59:51.532Z,19.10
2018-05-11T17:02:19.043Z,19.10
2018-05-11T17:04:46.536Z,19.20
2018-05-11T17:07:14.069Z,19.20
2018-05-11T17:09:41.603Z,19.10
2018-05-11T17:12:09.127Z,19.10
2018-05-11T17:14:36.623Z,19.00
2018-05-11T17:17:04.130Z,19.00
2018-05-11T17:19:31.647Z,19.00
2018-05-11T17:21:59.184Z,19.10
2018-05-11T17:24:26.721Z,19.00
2018-05-11T17:26:54.228Z,19.10
2018-05-11T17:29:21.740Z,19.10
2018-05-11T17:31:49.291Z,19.20
2018-05-11T17:34:16.821Z,19.20
2018-05-11T17:36:45.089Z,19.20
2018-05-11T17:39:12.609Z,19.20
2018-05-11T17:41:40.121Z,19.10
2018-05-11T17:44:07.638Z,19.10
2018-05-11T17:46:35.131Z,19.10
2018-05-11T17:49:02.642Z,19.10
2018-05-11T17:51:31.007Z,19.10
2018-05-11T17:53:58.510Z,19.10
2018-05-11T17:56:26.072Z,19.10
2018-05-11T17:58:53.682Z,19.10
2018-05-11T18:01:21.212Z,19.00
2018-05-11T18:03:48.724Z,19.00
2018-05-11T18:06:17.019Z,18.80
2018-05-11T18:08:44.519Z,18.80
2018-05-11T18:11:12.027Z,18.80
2018-05-11T18:13:40.307Z,18.70
2018-05-11T18:16:07.812Z,18.70
2018-05-11T18:18:35.343Z,18.60
2018-05-11T18:21:02.848Z,18.50
2018-05-11T18:23:30.375Z,18.50
2018-05-11T18:25:57.859Z,18.40
2018-05-11T18:28:25.396Z,18.40
2018-05-11T18:30:52.994Z,18.30
2018-05-11T18:33:20.569Z,18.20
2018-05-11T18:35:48.015Z,18.20
2018-05-11T18:38:15.544Z,18.20
2018-05-11T18:40:43.044Z,18.10
2018-05-11T18:43:11.426Z,18.00
2018-05-11T18:45:39.688Z,18.00
2018-05-11T18:48:07.966Z,18.00
2018-05-11T18:50:36.228Z,17.90
2018-05-11T18:53:03.904Z,17.90
2018-05-11T18:55:31.392Z,17.90
2018-05-11T18:57:58.918Z,17.80
2018-05-11T19:00:27.183Z,17.80
2018-05-11T19:02:54.709Z,17.80
2018-05-11T19:05:22.227Z,17.80
2018-05-11T19:07:50.490Z,17.80
2018-05-11T19:10:18.774Z,17.70
2018-05-11T19:12:46.338Z,17.70
2018-05-11T19:15:14.626Z,17.60
2018-05-11T19:17:42.146Z,17.60
2018-05-11T19:20:09.662Z,17.60
2018-05-11T19:22:37.195Z,17.60
2018-05-11T19:25:04.694Z,17.60
2018-05-11T19:27:32.210Z,17.60
2018-05-11T19:29:59.713Z,17.50
2018-05-11T19:32:27.220Z,17.50
2018-05-11T19:34:55.484Z,17.50
2018-05-11T19:37:23.968Z,17.50
2018-05-11T19:39:52.263Z,17.40
2018-05-11T19:42:19.811Z,17.40
2018-05-11T19:44:47.299Z,17.40
2018-05-11T19:47:14.801Z,17.40
2018-05-11T19:49:42.287Z,17.40
2018-05-11T19:52:09.785Z,17.30
2018-05-11T19:54:37.292Z,17.30
2018-05-11T19:57:05.563Z,17.20
2018-05-11T19:59:33.831Z,17.10
2018-05-11T20:02:01.343Z,17.10
2018-05-11T20:04:28.860Z,17.10
2018-05-11T20:06:57.132Z,17.00
2018-05-11T20:09:25.406Z,17.00
2018-05-11T20:11:53.680Z,16.90
2018-05-11T20:14:21.183Z,16.90
2018-05-11T20:16:48.687Z,16.90
2018-05-11T20:19:16.200Z,16.80
2018-05-11T20:21:43.743Z,16.70
2018-05-11T20:24:11.255Z,16.70
2018-05-11T20:26:39.527Z,16.60
2018-05-11T20:29:07.136Z,16.60
2018-05-11T20:31:34.646Z,16.60
2018-05-11T20:34:02.150Z,16.60
2018-05-11T20:36:29.654Z,16.60
2018-05-11T20:38:57.161Z,16.60
2018-05-11T20:41:25.419Z,16.60
2018-05-11T20:43:53.716Z,16.60
2018-05-11T20:46:21.214Z,16.60
2018-05-11T20:48:48.722Z,16.60
2018-05-11T20:51:16.999Z,16.50
2018-05-11T20:53:45.265Z,16.50
2018-05-11T20:56:13.542Z,16.40
2018-05-11T20:58:41.815Z,16.40
2018-05-11T21:01:10.091Z,16.40
2018-05-11T21:03:38.358Z,16.40
2018-05-11T21:06:05.855Z,16.30
2018-05-11T21:08:33.353Z,16.30
2018-05-11T21:11:00.859Z,16.30
2018-05-11T21:13:42.514Z,16.30
2018-05-11T21:16:11.525Z,16.20
2018-05-11T21:18:39.814Z,16.20
2018-05-11T21:21:07.319Z,16.20
2018-05-11T21:23:34.848Z,16.20
2018-05-11T21:26:02.346Z,16.20
2018-05-11T21:28:29.849Z,16.20
2018-05-11T21:30:57.368Z,16.20
2018-05-11T21:33:24.890Z,16.20
2018-05-11T21:35:52.407Z,16.10
2018-05-11T21:38:20.686Z,16.10
2018-05-11T21:40:49.029Z,16.20
2018-05-11T21:43:17.236Z,16.10
2018-05-11T21:45:45.500Z,16.10
2018-05-11T21:48:13.759Z,16.10
2018-05-11T21:50:41.287Z,16.10
2018-05-11T21:53:08.820Z,16.10
2018-05-11T21:55:36.328Z,16.10
2018-05-11T21:58:03.823Z,16.10
2018-05-11T22:00:32.099Z,16.10
2018-05-11T22:03:00.396Z,16.10
2018-05-11T22:05:27.949Z,16.00
2018-05-11T22:07:55.452Z,16.00
2018-05-11T22:10:22.955Z,16.00
2018-05-11T22:12:51.234Z,15.90
2018-05-11T22:15:19.486Z,15.90
2018-05-11T22:17:47.031Z,15.90
2018-05-11T22:20:14.532Z,15.90
2018-05-11T22:22:42.790Z,15.90
2018-05-11T22:25:11.077Z,15.80
2018-05-11T22:27:39.327Z,15.80
2018-05-11T22:30:06.829Z,15.80
2018-05-11T22:32:34.387Z,15.80
2018-05-11T22:35:01.885Z,15.80
2018-05-11T22:37:29.400Z,15.80
2018-05-11T22:39:56.917Z,15.80
2018-05-11T22:42:24.432Z,15.80
2018-05-11T22:44:51.939Z,15.70
2018-05-11T22:47:20.226Z,15.70
2018-05-11T22:49:47.802Z,15.70
2018-05-11T22:52:15.298Z,15.70
2018-05-11T22:54:42.799Z,15.70
2018-05-11T22:57:11.079Z,15.70
2018-05-11T22:59:39.357Z,15.60
2018-05-11T23:02:07.639Z,15.60
2018-05-11T23:04:35.917Z,15.60
2018-05-11T23:07:04.185Z,15.60
2018-05-11T23:09:32.492Z,15.60
2018-05-11T23:11:59.997Z,15.50
2018-05-11T23:14:27.515Z,15.50
2018-05-11T23:16:55.027Z,15.50
2018-05-11T23:19:22.532Z,15.50
2018-05-11T23:21:50.038Z,15.60
2018-05-11T23:24:17.546Z,15.60
2018-05-11T23:26:45.048Z,15.50
2018-05-11T23:29:12.559Z,15.50
2018-05-11T23:31:40.117Z,15.50
2018-05-11T23:34:07.693Z,15.40
2018-05-11T23:36:35.231Z,15.40
2018-05-11T23:39:02.748Z,15.40
2018-05-11T23:41:31.042Z,15.40
2018-05-11T23:43:59.324Z,15.40
2018-05-11T23:46:26.884Z,15.40
2018-05-11T23:48:54.380Z,15.40
2018-05-11T23:51:21.891Z,15.40
2018-05-11T23:53:50.162Z,15.40
2018-05-11T23:56:18.439Z,15.40
2018-05-11T23:58:46.711Z,15.40
